Hauptseite
METAR-TAF:

METAR-TAF

Flughäfen :

Militärflugplatz Payerne

Payerne, Schweiz

Breite: 46-49N, Länge: 006-57E, Höhe: 490 m

Beobachtung

Neuester Wetterbericht von vor 34 Minuten, um 04:50 UTC
Wind 1 kt aus unterschiedlichen Richtungen
Temperatur 0°C
Luftfeuchtigkeit 93%
Luftdruck 1007 hPa
Sichtweite: 6000 m
Leicht bewölkt in der Höhe von 100 ft
Aufgelockert bewölkt in der Höhe von 1900 ft

METAR: LSMP 170450Z AUTO VRB01KT 6000NDV FEW001 SCT019 00/M01 Q1007 RMK

Zeit: 06:24 (05:24 UTC)


TAF: fehlend

Wetterbeobachtungen und Prognosen von mehr als 4000 Flughäfen (METAR und TAF Bericht).

Die verfügbaren Stationen werden durch gelbe und rote Markierungen auf der Karte dargestellt.

Führen Sie die Maus auf sie, um den Namen der Station zu sehen.

Darauf klicken, um die Beobachtung von Wetterbeobachtungen und Prognosen zu sehen.

Um die Karte zu ändern : klicken Sie auf den grünen Tasten mit einem schwarzen Kreuz Zum Vergrößern, auf den grünen Button mit einem Gedankenstrich zu verkleinern, oder auf die grünen Pfeile für benachbarte Karten.


METAR-TAF: